Time;durP1;ratioP1;P1;durP2;ratioP2;P2;SDS_P1;SDS_P2;PMS_P1;PMS_P2;Temp;Humidity;BMP_temperature;BMP_pressure;BME280_temperature;BME280_humidity;BME280_pressure;Samples;Min_cycle;Max_cycle;Signal;HPM_P1;HPM_P2
2022/11/03 00:02:42;;;;;;;7.88;1.88;;;;;;;6.16;78.96;101039.44;6239616;23;20019;-73
2022/11/03 00:06:04;;;;;;;5.63;2.30;;;;;;;6.07;79.24;101034.50;6221761;23;20077;-73
2022/11/03 00:09:11;;;;;;;7.97;2.03;;;;;;;6.10;78.87;101037.00;6240932;23;20027;-73
2022/11/03 00:12:14;;;;;;;8.23;1.90;;;;;;;6.07;79.18;101021.50;6240654;23;20023;-73
2022/11/03 00:15:19;;;;;;;7.20;1.98;;;;;;;6.03;79.19;101020.75;6239648;23;20128;-73
2022/11/03 00:18:22;;;;;;;14.07;1.90;;;;;;;6.11;79.09;101023.13;6240450;23;20078;-73
2022/11/03 00:21:29;;;;;;;8.43;2.08;;;;;;;6.26;78.23;101017.53;6240279;23;20103;-73
2022/11/03 00:24:33;;;;;;;7.50;2.05;;;;;;;6.10;78.53;101025.78;6240460;23;20113;-74
2022/11/03 00:27:37;;;;;;;;;;;;;;;5.92;79.39;101027.06;6241741;23;20370;-73
2022/11/03 00:30:41;;;;;;;4.20;1.95;;;;;;;5.90;79.57;101018.44;6240582;23;19998;-73
2022/11/03 00:33:45;;;;;;;;;;;;;;;5.86;79.39;101022.84;6240937;23;20059;-73
2022/11/03 00:36:49;;;;;;;7.43;1.88;;;;;;;5.82;78.92;101006.50;6240150;23;19914;-73
2022/11/03 00:39:52;;;;;;;6.95;1.73;;;;;;;5.84;79.34;100996.13;6239937;23;20027;-73
2022/11/03 00:42:55;;;;;;;9.82;2.90;;;;;;;5.99;79.02;101000.06;6240073;23;20340;-73
2022/11/03 00:46:00;;;;;;;6.85;2.22;;;;;;;5.85;78.91;100997.81;6240722;23;20074;-73
2022/11/03 00:49:04;;;;;;;5.15;1.95;;;;;;;5.98;78.52;101003.56;6222635;23;20027;-73
2022/11/03 00:52:17;;;;;;;8.00;2.42;;;;;;;5.95;78.11;101004.50;6240661;23;20070;-73
2022/11/03 00:55:20;;;;;;;6.68;2.20;;;;;;;5.51;79.89;101013.34;6241065;23;20112;-73
2022/11/03 00:58:24;;;;;;;6.95;2.20;;;;;;;5.91;78.66;101010.63;6239524;23;20578;-73
2022/11/03 01:01:32;;;;;;;5.53;1.92;;;;;;;5.85;78.95;101002.16;6239936;23;20035;-73
2022/11/03 01:07:57;;;;;;;10.32;2.13;;;;;;;5.72;78.91;101002.44;6240683;23;20110;-73
2022/11/03 01:14:46;;;;;;;8.52;2.45;;;;;;;5.82;78.86;100996.13;6240244;23;20073;-73
2022/11/03 01:17:53;;;;;;;11.07;2.83;;;;;;;5.95;78.28;100988.06;6221862;23;20335;-73
2022/11/03 01:20:57;;;;;;;9.02;2.42;;;;;;;5.97;78.09;100991.50;6240372;23;20047;-73
2022/11/03 01:24:01;;;;;;;;;;;;;;;5.88;77.89;100981.31;6221659;23;20022;-73
2022/11/03 01:27:04;;;;;;;10.43;3.28;;;;;;;5.70;78.44;100972.25;6238759;23;20349;-73
2022/11/03 01:30:08;;;;;;;12.52;2.25;;;;;;;5.57;78.96;100972.53;6239551;23;20075;-73
2022/11/03 01:33:12;;;;;;;9.15;2.45;;;;;;;5.58;78.98;100975.97;6239995;23;20453;-73
2022/11/03 01:36:16;;;;;;;8.90;2.10;;;;;;;5.39;79.96;100966.94;6221672;23;20027;-73
2022/11/03 01:39:20;;;;;;;10.93;2.17;;;;;;;5.59;79.16;100965.59;6240341;23;20361;-73
2022/11/03 01:42:24;;;;;;;8.75;2.28;;;;;;;5.52;79.81;100957.97;6238916;23;20039;-73
2022/11/03 01:45:27;;;;;;;;;;;;;;;5.70;78.67;100957.53;6240237;23;20023;-73
2022/11/03 01:48:33;;;;;;;5.53;1.88;;;;;;;5.68;78.57;100959.31;6239312;23;19914;-73
2022/11/03 01:51:38;;;;;;;8.05;2.80;;;;;;;5.58;78.33;100955.22;6239412;23;20031;-73
2022/11/03 01:54:45;;;;;;;8.85;2.42;;;;;;;5.50;78.76;100954.56;6239365;23;20352;-73
2022/11/03 01:58:06;;;;;;;7.90;2.55;;;;;;;5.45;78.80;100956.41;6239316;23;20031;-73
2022/11/03 02:01:12;;;;;;;13.82;3.03;;;;;;;5.47;79.09;100949.47;6238899;22;20466;-73
2022/11/03 02:04:22;;;;;;;6.57;2.00;;;;;;;5.34;79.89;100949.75;6239126;23;20467;-73
2022/11/03 02:07:52;;;;;;;7.65;1.98;;;;;;;5.32;79.36;100943.75;6238707;23;20470;-73
2022/11/03 02:10:57;;;;;;;11.25;2.33;;;;;;;5.36;79.14;100945.41;6237545;23;20442;-74
2022/11/03 02:14:01;;;;;;;8.32;1.83;;;;;;;5.50;78.96;100939.00;6237654;23;20521;-73
2022/11/03 02:17:11;;;;;;;6.22;2.00;;;;;;;5.40;79.27;100942.72;6236337;23;20066;-73
2022/11/03 02:20:20;;;;;;;11.68;2.17;;;;;;;5.42;79.26;100943.53;6239010;23;20127;-73
2022/11/03 02:24:08;;;;;;;10.13;2.22;;;;;;;5.39;79.20;100928.88;6239053;23;20474;-73
2022/11/03 02:27:12;;;;;;;9.23;3.10;;;;;;;5.37;79.53;100925.50;6239908;23;20099;-73
2022/11/03 02:30:16;;;;;;;8.15;2.25;;;;;;;5.39;79.25;100920.25;6242151;23;20027;-73
2022/11/03 02:33:24;;;;;;;6.40;2.03;;;;;;;5.10;79.69;100916.63;6223360;23;20054;-73
2022/11/03 02:36:50;;;;;;;8.65;2.50;;;;;;;5.45;78.63;100910.59;6242243;23;20383;-73
2022/11/03 02:40:02;;;;;;;8.10;2.45;;;;;;;5.35;78.63;100894.41;6240300;23;20042;-73
2022/11/03 02:43:08;;;;;;;12.77;2.70;;;;;;;5.21;79.37;100891.31;6241108;23;20035;-73
2022/11/03 02:46:15;;;;;;;14.63;3.25;;;;;;;5.36;78.78;100890.94;6241152;23;20350;-73
2022/11/03 02:49:18;;;;;;;7.45;1.70;;;;;;;5.21;79.17;100880.94;6241140;23;20026;-73
2022/11/03 02:52:42;;;;;;;9.93;2.30;;;;;;;5.35;78.99;100878.84;6241208;23;20027;-73
2022/11/03 02:56:02;;;;;;;5.88;1.88;;;;;;;5.18;79.44;100873.22;6241170;23;20073;-73
2022/11/03 02:59:15;;;;;;;9.45;2.38;;;;;;;5.18;79.32;100875.81;6241915;22;20117;-73
2022/11/03 03:02:27;;;;;;;10.32;2.53;;;;;;;5.25;79.24;100871.34;6241553;23;20060;-73
2022/11/03 03:05:36;;;;;;;10.63;3.00;;;;;;;5.12;80.01;100870.78;6241315;23;20026;-73
2022/11/03 03:08:45;;;;;;;5.70;2.13;;;;;;;5.38;79.01;100856.31;6240152;23;20026;-73
2022/11/03 03:11:52;;;;;;;6.80;2.03;;;;;;;5.33;78.25;100856.47;6241117;23;20351;-73
2022/11/03 03:14:59;;;;;;;8.18;1.73;;;;;;;5.21;79.49;100862.78;6241097;23;20402;-73
2022/11/03 03:18:18;;;;;;;5.65;1.92;;;;;;;5.11;79.26;100856.97;6241642;23;20023;-73
2022/11/03 03:21:29;;;;;;;9.77;1.90;;;;;;;5.20;78.91;100839.47;6240064;23;20051;-73
2022/11/03 03:24:44;;;;;;;12.15;3.10;;;;;;;5.34;79.00;100850.38;6240821;23;20027;-74
2022/11/03 03:27:52;;;;;;;8.52;2.15;;;;;;;5.19;79.73;100841.22;6241208;23;20039;-73
2022/11/03 03:31:01;;;;;;;15.07;2.20;;;;;;;5.02;79.97;100844.25;6240951;23;20074;-73
2022/11/03 03:34:06;;;;;;;8.63;2.00;;;;;;;5.09;79.53;100844.94;6240890;23;20150;-73
2022/11/03 03:37:12;;;;;;;8.18;2.40;;;;;;;5.31;78.80;100820.19;6239906;23;20081;-73
2022/11/03 03:40:21;;;;;;;5.00;1.70;;;;;;;4.84;79.62;100827.38;6221553;23;20114;-73
2022/11/03 03:43:27;;;;;;;7.35;2.03;;;;;;;5.00;79.75;100819.25;6222250;23;20462;-74
2022/11/03 03:46:35;;;;;;;7.65;2.15;;;;;;;5.09;79.60;100816.44;6240327;23;20078;-73
2022/11/03 03:49:39;;;;;;;7.75;2.35;;;;;;;5.08;79.41;100812.16;6240049;23;20073;-73
2022/11/03 03:52:43;;;;;;;4.63;1.52;;;;;;;5.15;79.38;100811.09;6238129;23;20479;-73
2022/11/03 03:56:12;;;;;;;;;;;;;;;5.08;79.08;100806.97;6241147;23;20038;-73
2022/11/03 03:59:15;;;;;;;8.70;2.08;;;;;;;5.15;78.75;100808.50;6242106;22;19930;-73
2022/11/03 04:02:18;;;;;;;10.00;1.88;;;;;;;5.08;78.84;100814.75;6242275;23;20026;-73
2022/11/03 04:05:22;;;;;;;9.18;2.33;;;;;;;4.94;79.27;100806.44;6238343;23;20031;-73
2022/11/03 04:08:26;;;;;;;8.00;1.92;;;;;;;4.96;78.97;100813.28;6240498;23;20103;-73
2022/11/03 04:24:59;;;;;;;6.25;2.05;;;;;;;4.84;79.34;100792.84;6240880;23;20019;-73
2022/11/03 04:28:13;;;;;;;6.85;1.90;;;;;;;4.90;79.31;100797.91;6239017;23;20094;-73
2022/11/03 04:31:17;;;;;;;6.70;1.92;;;;;;;4.97;78.92;100799.44;6240858;23;20470;-73
2022/11/03 04:34:22;;;;;;;7.05;1.92;;;;;;;4.61;79.78;100796.00;6239535;23;20066;-73
2022/11/03 04:37:27;;;;;;;8.70;2.40;;;;;;;4.90;79.18;100782.34;6240255;23;20055;-73
2022/11/03 04:40:32;;;;;;;9.88;2.17;;;;;;;4.82;79.07;100779.97;6240263;23;20113;-73
2022/11/03 04:43:37;;;;;;;5.15;1.55;;;;;;;4.88;78.85;100774.63;6239955;23;20066;-73
2022/11/03 04:46:44;;;;;;;9.82;2.53;;;;;;;4.75;79.31;100770.59;6240023;23;20027;-73
2022/11/03 04:49:48;;;;;;;6.30;1.60;;;;;;;4.85;79.15;100766.94;6240697;23;20030;-73
2022/11/03 04:53:09;;;;;;;7.57;2.13;;;;;;;5.05;77.95;100753.47;6240287;23;20704;-74
2022/11/03 04:56:18;;;;;;;7.35;1.98;;;;;;;4.84;78.90;100744.47;6238336;23;20039;-73
2022/11/03 04:59:24;;;;;;;6.68;1.90;;;;;;;4.72;78.93;100747.38;6218976;22;20348;-73
2022/11/03 05:02:30;;;;;;;7.40;1.95;;;;;;;4.67;79.28;100738.88;6237474;23;20050;-73
2022/11/03 05:05:39;;;;;;;3.88;1.55;;;;;;;4.70;79.54;100737.97;6238206;23;20462;-73
2022/11/03 05:08:52;;;;;;;9.20;1.90;;;;;;;4.88;78.87;100738.34;6238170;23;20039;-73
2022/11/03 05:12:00;;;;;;;5.38;2.50;;;;;;;4.60;79.30;100727.81;6238927;23;20027;-73
2022/11/03 05:15:25;;;;;;;9.40;1.65;;;;;;;4.76;79.24;100727.44;6239393;23;20031;-73
2022/11/03 05:18:36;;;;;;;4.25;1.60;;;;;;;4.78;78.65;100726.50;6240427;23;20063;-73
2022/11/03 05:21:47;;;;;;;10.10;3.50;;;;;;;4.61;79.01;100713.13;6240996;23;20255;-73
2022/11/03 05:24:57;;;;;;;7.85;2.25;;;;;;;4.73;79.01;100712.81;6222743;23;20384;-73
2022/11/03 05:33:41;;;;;;;8.32;1.85;;;;;;;4.64;78.68;100707.88;6225340;23;20023;-74
2022/11/03 05:36:49;;;;;;;8.70;2.60;;;;;;;4.50;79.22;100694.41;6235436;23;20050;-73
2022/11/03 05:40:00;;;;;;;9.10;3.78;;;;;;;4.71;78.80;100688.69;6239454;23;20098;-73
2022/11/03 05:43:09;;;;;;;9.88;3.97;;;;;;;4.62;78.97;100686.31;6238776;23;20022;-73
2022/11/03 05:46:15;;;;;;;7.97;1.63;;;;;;;4.59;78.70;100678.63;6220383;23;20026;-73
2022/11/03 05:49:20;;;;;;;6.07;1.83;;;;;;;4.40;79.42;100683.41;6238451;23;20027;-73
2022/11/03 05:52:27;;;;;;;6.70;1.95;;;;;;;4.63;79.06;100688.91;6220434;23;20105;-74
2022/11/03 05:55:37;;;;;;;9.85;2.65;;;;;;;4.62;78.69;100678.56;6239417;23;20106;-73
2022/11/03 05:58:45;;;;;;;8.35;5.25;;;;;;;4.58;79.11;100671.75;6238816;23;20023;-73
2022/11/03 06:01:53;;;;;;;5.55;2.67;;;;;;;4.30;80.20;100672.44;6239342;23;20055;-73
2022/11/03 06:05:00;;;;;;;7.72;3.40;;;;;;;4.47;80.14;100677.22;6239084;23;20387;-73
2022/11/03 06:08:23;;;;;;;5.20;2.53;;;;;;;3.87;81.94;100678.63;6239230;23;20023;-73
2022/11/03 06:11:56;;;;;;;5.15;3.10;;;;;;;3.83;83.57;100674.41;6221361;23;20039;-73
2022/11/03 06:15:24;;;;;;;4.95;2.30;;;;;;;4.24;81.34;100672.56;6239081;23;20099;-73
2022/11/03 06:18:34;;;;;;;5.15;2.35;;;;;;;4.19;81.48;100669.25;6240386;23;20027;-73
2022/11/03 06:21:42;;;;;;;6.53;2.25;;;;;;;4.41;80.06;100654.91;6240125;23;20086;-73
2022/11/03 06:24:46;;;;;;;7.25;1.80;;;;;;;3.31;84.99;100657.38;6239762;23;20054;-73
2022/11/03 06:27:52;;;;;;;4.30;1.70;;;;;;;3.57;84.46;100663.75;6239247;23;20030;-73
2022/11/03 06:30:55;;;;;;;9.93;2.22;;;;;;;3.17;86.49;100659.41;6237658;23;20447;-73
2022/11/03 06:34:00;;;;;;;5.68;2.20;;;;;;;3.43;86.53;100651.97;6237012;23;20489;-73
2022/11/03 06:37:33;;;;;;;7.68;2.70;;;;;;;3.09;86.86;100643.19;6237988;23;20081;-73
2022/11/03 06:40:38;;;;;;;8.77;2.72;;;;;;;3.11;87.50;100659.53;6238557;23;20023;-78
2022/11/03 06:43:43;;;;;;;7.30;2.10;;;;;;;3.36;87.40;100645.22;6239845;23;20038;-73
2022/11/03 06:46:47;;;;;;;7.53;1.73;;;;;;;3.88;84.76;100643.25;6239913;23;20042;-74
2022/11/03 06:49:59;;;;;;;3.97;1.92;;;;;;;4.19;82.99;100644.22;6220489;23;20055;-74
2022/11/03 06:53:03;;;;;;;4.93;2.55;;;;;;;4.54;81.35;100644.25;6239735;23;20024;-74
2022/11/03 06:56:18;;;;;;;4.65;2.00;;;;;;;4.47;81.79;100642.69;6238669;23;20027;-74
2022/11/03 06:59:21;;;;;;;5.88;2.20;;;;;;;4.60;81.22;100639.75;6239659;22;20409;-74
2022/11/03 07:02:53;;;;;;;3.80;1.73;;;;;;;4.73;79.99;100644.63;6239583;23;20066;-74
2022/11/03 07:06:02;;;;;;;4.85;1.88;;;;;;;4.81;80.02;100627.97;6236930;23;20107;-74
2022/11/03 07:09:14;;;;;;;7.20;1.60;;;;;;;4.79;80.99;100629.78;6236841;23;20066;-74
2022/11/03 07:12:17;;;;;;;8.05;1.70;;;;;;;4.69;81.09;100620.56;6236959;23;20150;-74
2022/11/03 07:15:24;;;;;;;5.18;1.45;;;;;;;4.71;81.01;100610.97;6218438;23;20070;-74
2022/11/03 07:18:37;;;;;;;5.45;1.23;;;;;;;4.85;80.89;100598.53;6239697;23;20042;-74
2022/11/03 07:21:49;;;;;;;5.63;1.58;;;;;;;4.76;80.94;100588.41;6240747;23;20118;-74
2022/11/03 07:24:59;;;;;;;3.17;1.25;;;;;;;4.85;81.30;100592.47;6240120;23;20447;-74
2022/11/03 07:28:04;;;;;;;7.50;1.50;;;;;;;4.68;81.90;100598.09;6240779;23;20086;-74
2022/11/03 07:31:15;;;;;;;6.20;1.50;;;;;;;4.80;81.15;100592.59;6222466;23;20566;-74
2022/11/03 07:34:24;;;;;;;6.97;2.03;;;;;;;4.13;85.49;100589.19;6240711;23;20093;-74
2022/11/03 07:37:28;;;;;;;6.55;1.63;;;;;;;4.71;85.65;100585.09;6240607;23;20502;-74
2022/11/03 07:40:33;;;;;;;7.20;1.70;;;;;;;4.64;85.21;100562.84;6240325;23;20077;-74
2022/11/03 07:43:37;;;;;;;7.15;1.67;;;;;;;4.41;85.32;100551.34;6240490;23;20034;-73
2022/11/03 07:46:43;;;;;;;6.30;1.95;;;;;;;4.78;84.17;100565.88;6240980;23;20023;-74
2022/11/03 07:49:47;;;;;;;4.10;1.65;;;;;;;4.90;82.63;100562.94;6241543;23;20027;-74
2022/11/03 07:52:51;;;;;;;6.68;1.80;;;;;;;4.95;82.59;100549.88;6240482;23;20340;-74
2022/11/03 07:55:55;;;;;;;;;;;;;;;5.01;82.67;100536.75;6223137;23;20154;-74
2022/11/03 07:59:18;;;;;;;9.38;2.75;;;;;;;4.91;82.84;100540.47;6236732;22;20387;-74
2022/11/03 08:02:46;;;;;;;5.75;1.50;;;;;;;5.13;82.16;100535.53;6241836;23;20356;-74
2022/11/03 08:05:50;;;;;;;5.30;1.70;;;;;;;5.07;82.35;100539.16;6240491;23;20122;-74
2022/11/03 08:08:53;;;;;;;4.78;2.75;;;;;;;5.02;82.47;100532.41;6221049;23;20108;-74
2022/11/03 08:11:57;;;;;;;;;;;;;;;5.12;82.52;100518.28;6240715;23;20027;-74
2022/11/03 08:15:00;;;;;;;4.15;1.80;;;;;;;5.23;82.83;100511.03;6240886;23;19919;-74
2022/11/03 08:18:04;;;;;;;5.18;2.00;;;;;;;5.42;82.38;100500.94;6241409;23;20074;-74
2022/11/03 08:21:08;;;;;;;7.10;2.42;;;;;;;5.30;83.33;100502.19;6221876;23;20153;-74
2022/11/03 08:24:12;;;;;;;6.55;2.20;;;;;;;5.44;83.26;100490.53;6240982;23;20030;-74
2022/11/03 08:27:15;;;;;;;4.75;2.22;;;;;;;5.50;83.31;100498.94;6240148;23;20078;-74
2022/11/03 08:30:19;;;;;;;9.05;2.97;;;;;;;5.56;82.38;100503.09;6221165;23;20026;-74
2022/11/03 08:33:23;;;;;;;8.25;3.38;;;;;;;5.56;82.09;100497.91;6240145;23;20023;-74
2022/11/03 08:36:27;;;;;;;6.60;2.83;;;;;;;5.68;82.52;100494.94;6240101;23;20091;-74
2022/11/03 08:39:31;;;;;;;8.85;2.13;;;;;;;5.74;82.50;100486.94;6222718;23;20095;-74
2022/11/03 08:42:36;;;;;;;3.80;1.60;;;;;;;5.70;82.55;100487.94;6240518;23;20169;-74
2022/11/03 08:45:40;;;;;;;7.80;1.77;;;;;;;5.81;82.55;100493.63;6239745;23;20030;-74
2022/11/03 08:48:44;;;;;;;6.88;1.95;;;;;;;6.08;82.04;100493.63;6238989;23;20023;-74
2022/11/03 08:51:48;;;;;;;6.15;2.30;;;;;;;6.20;83.28;100480.22;6237244;23;20059;-74
2022/11/03 08:54:51;;;;;;;;;;;;;;;6.36;82.86;100490.06;6240332;23;20028;-74
2022/11/03 08:57:55;;;;;;;7.32;2.85;;;;;;;6.38;82.69;100481.34;6240579;23;20251;-74
2022/11/03 09:00:58;;;;;;;;;;;;;;;6.47;83.41;100467.16;6232897;23;20596;-74
2022/11/03 09:04:03;;;;;;;7.38;2.05;;;;;;;6.62;83.52;100461.41;6237914;23;20246;-74
2022/11/03 09:07:06;;;;;;;7.03;2.15;;;;;;;6.68;83.99;100444.75;6238493;23;20082;-74
2022/11/03 09:10:10;;;;;;;;;;;;;;;6.80;84.41;100446.03;6238998;23;20105;-73
2022/11/03 09:13:13;;;;;;;5.95;1.50;;;;;;;6.90;84.63;100434.38;6239683;23;19918;-73
2022/11/03 09:16:18;;;;;;;5.15;2.05;;;;;;;6.94;85.35;100435.94;6240908;23;20069;-73
2022/11/03 09:19:21;;;;;;;7.63;2.38;;;;;;;7.06;85.09;100435.47;6239725;23;20073;-73
2022/11/03 09:22:25;;;;;;;7.15;2.28;;;;;;;6.92;85.91;100419.56;6238486;23;20027;-73
2022/11/03 09:25:29;;;;;;;7.07;2.10;;;;;;;7.04;85.95;100413.03;6232170;23;20510;-73
2022/11/03 09:28:32;;;;;;;;;;;;;;;7.19;85.29;100409.84;6232866;23;20027;-73
2022/11/03 09:31:36;;;;;;;8.68;2.78;;;;;;;7.28;84.39;100398.22;6238362;23;20388;-73
2022/11/03 09:34:39;;;;;;;7.22;2.88;;;;;;;7.28;85.98;100403.44;6239255;23;20069;-73
2022/11/03 09:37:43;;;;;;;6.10;2.88;;;;;;;7.44;85.84;100407.09;6240711;23;20027;-73
2022/11/03 09:40:51;;;;;;;7.32;3.38;;;;;;;7.60;84.99;100400.34;6240188;23;20077;-73
2022/11/03 09:43:59;;;;;;;12.07;3.55;;;;;;;7.65;85.19;100389.72;6239794;23;20034;-73
2022/11/03 09:47:04;;;;;;;12.25;3.47;;;;;;;7.61;85.78;100381.19;6237484;23;20553;-74
2022/11/03 09:50:15;;;;;;;12.25;3.65;;;;;;;7.80;85.08;100376.06;6238380;23;20023;-73
2022/11/03 09:53:20;;;;;;;6.00;3.08;;;;;;;7.88;85.81;100363.56;6239499;23;20455;-73
2022/11/03 09:56:25;;;;;;;9.75;3.92;;;;;;;7.98;86.23;100357.97;6239545;23;20383;-73
2022/11/03 09:59:29;;;;;;;7.72;3.80;;;;;;;7.94;85.68;100357.22;6239220;22;20214;-73
2022/11/03 10:02:37;;;;;;;12.25;5.25;;;;;;;7.74;86.97;100345.09;6237874;23;20099;-74
2022/11/03 10:05:44;;;;;;;13.02;4.40;;;;;;;7.96;86.50;100333.75;6239153;23;20103;-73
2022/11/03 10:08:49;;;;;;;13.32;4.50;;;;;;;7.96;88.23;100323.31;6240247;23;20081;-73
2022/11/03 10:11:54;;;;;;;14.05;4.95;;;;;;;8.00;87.36;100301.44;6240431;23;20054;-73
2022/11/03 10:14:58;;;;;;;15.45;5.53;;;;;;;8.10;87.77;100277.53;6238691;23;20498;-74
2022/11/03 10:18:02;;;;;;;13.20;4.60;;;;;;;8.26;88.52;100287.22;6239174;23;20030;-73
2022/11/03 10:21:15;;;;;;;14.07;4.88;;;;;;;8.29;88.48;100300.09;6239362;23;20038;-73
2022/11/03 10:24:19;;;;;;;12.38;5.65;;;;;;;8.45;88.30;100282.03;6239367;23;20378;-73
2022/11/03 10:27:25;;;;;;;18.25;8.23;;;;;;;8.42;88.29;100272.59;6220420;23;20027;-73
2022/11/03 10:30:28;;;;;;;13.73;6.55;;;;;;;8.45;89.33;100285.47;6238360;23;20281;-73
2022/11/03 10:33:41;;;;;;;14.27;4.95;;;;;;;8.51;89.18;100266.94;6239389;23;20062;-73
2022/11/03 10:36:44;;;;;;;12.57;5.63;;;;;;;8.60;88.60;100268.28;6239055;23;20047;-73
2022/11/03 10:39:48;;;;;;;;;;;;;;;8.71;89.22;100258.19;6240448;23;20058;-73
2022/11/03 10:42:59;;;;;;;39.65;6.47;;;;;;;8.83;88.47;100247.13;6240436;23;19961;-73
2022/11/03 10:46:16;;;;;;;16.05;5.18;;;;;;;8.98;87.85;100232.50;6239314;23;20158;-73
2022/11/03 10:49:20;;;;;;;14.13;6.18;;;;;;;9.05;87.93;100228.66;6239268;23;20359;-73
2022/11/03 10:52:31;;;;;;;15.63;5.60;;;;;;;9.10;87.02;100219.78;6241381;23;20355;-73
2022/11/03 10:55:34;;;;;;;14.68;5.63;;;;;;;9.10;88.10;100215.41;6241205;23;20070;-73
2022/11/03 10:58:39;;;;;;;13.88;5.55;;;;;;;9.04;88.25;100203.50;6241316;23;20023;-73
2022/11/03 11:01:42;;;;;;;12.18;5.07;;;;;;;9.02;88.34;100192.28;6242163;23;20027;-73
2022/11/03 11:04:51;;;;;;;;;;;;;;;9.07;88.53;100179.88;6242337;23;20085;-73
2022/11/03 11:07:55;;;;;;;13.32;4.85;;;;;;;9.16;88.20;100169.91;6241693;23;19921;-73
2022/11/03 11:11:05;;;;;;;9.52;4.97;;;;;;;9.13;89.63;100160.47;6241075;23;20030;-73
2022/11/03 11:14:29;;;;;;;11.23;5.22;;;;;;;9.24;89.30;100159.88;6239848;23;20389;-73
2022/11/03 11:17:41;;;;;;;14.00;4.90;;;;;;;9.21;88.65;100154.84;6241521;23;20077;-73
2022/11/03 11:20:44;;;;;;;16.33;7.78;;;;;;;9.09;89.57;100156.31;6241057;23;20023;-74
2022/11/03 11:23:48;;;;;;;14.85;6.95;;;;;;;9.04;90.27;100155.72;6241789;23;20047;-73
2022/11/03 11:26:53;;;;;;;12.75;5.55;;;;;;;9.13;89.35;100134.38;6239835;23;20022;-73
2022/11/03 11:29:59;;;;;;;20.73;7.28;;;;;;;9.18;88.60;100128.91;6241628;23;20026;-73
2022/11/03 11:33:13;;;;;;;14.57;6.40;;;;;;;9.23;89.85;100129.50;6240961;23;20078;-73
2022/11/03 11:36:23;;;;;;;12.63;4.80;;;;;;;9.29;89.82;100121.38;6241765;23;20387;-73
2022/11/03 11:39:27;;;;;;;14.75;6.45;;;;;;;9.27;90.02;100118.00;6223333;23;20371;-73
2022/11/03 11:42:30;;;;;;;18.10;7.18;;;;;;;9.24;90.62;100119.00;6221900;23;20438;-73
2022/11/03 11:46:12;;;;;;;;;;;;;;;9.21;91.07;100110.47;6241521;23;20466;-73
2022/11/03 11:49:17;;;;;;;12.88;6.22;;;;;;;9.25;90.05;100096.34;6117478;23;19971;-74
2022/11/03 11:52:26;;;;;;;14.30;6.55;;;;;;;9.32;91.30;100095.13;6116409;23;20103;-73
2022/11/03 11:55:57;;;;;;;15.15;5.63;;;;;;;9.38;91.03;100094.78;6220226;23;20058;-73
2022/11/03 11:59:02;;;;;;;18.15;5.78;;;;;;;9.37;91.01;100103.53;6239139;22;20023;-73
2022/11/03 12:02:22;;;;;;;12.07;5.97;;;;;;;9.38;91.09;100097.41;6221856;23;20074;-73
2022/11/03 12:05:29;;;;;;;28.77;18.52;;;;;;;9.42;90.62;100100.69;6239277;23;20066;-73
2022/11/03 12:08:33;;;;;;;30.73;19.55;;;;;;;9.44;89.77;100083.97;6239432;23;20054;-74
2022/11/03 12:11:54;;;;;;;18.02;7.40;;;;;;;9.48;91.18;100085.53;6238918;23;20074;-73
2022/11/03 12:14:58;;;;;;;16.00;6.75;;;;;;;9.49;91.34;100074.16;6239435;23;20455;-73
2022/11/03 12:18:20;;;;;;;;;;;;;;;9.57;90.35;100059.81;6240640;23;20034;-73
2022/11/03 12:21:46;;;;;;;10.55;5.10;;;;;;;9.64;90.92;100048.13;6241231;23;20262;-74
2022/11/03 12:24:53;;;;;;;12.30;4.63;;;;;;;9.65;91.44;100023.72;6238325;23;20142;-74
2022/11/03 12:27:57;;;;;;;15.93;5.70;;;;;;;9.73;92.17;100013.66;6238375;23;20070;-73
2022/11/03 12:31:00;;;;;;;;;;;;;;;9.80;92.21;100017.63;6238451;23;20352;-73
2022/11/03 12:34:04;;;;;;;14.27;5.47;;;;;;;9.81;90.92;100001.03;6239618;23;20008;-74
2022/11/03 12:37:08;;;;;;;17.60;5.82;;;;;;;9.91;91.73;99977.81;6239491;23;20030;-73
2022/11/03 12:40:13;;;;;;;13.73;5.55;;;;;;;10.01;90.83;99955.47;6221199;23;20023;-73
2022/11/03 12:43:17;;;;;;;14.98;4.78;;;;;;;10.04;90.16;99962.28;6239201;23;20077;-74
2022/11/03 12:46:21;;;;;;;14.57;5.30;;;;;;;10.01;89.56;99958.91;6239584;23;20403;-73
2022/11/03 12:49:24;;;;;;;13.10;4.72;;;;;;;9.94;89.93;99965.44;6239575;23;20023;-73
2022/11/03 12:52:28;;;;;;;13.55;6.95;;;;;;;9.80;91.27;99975.00;6239811;23;20027;-74
2022/11/03 12:55:33;;;;;;;21.42;6.55;;;;;;;9.72;91.89;99978.03;6239254;23;20081;-73
2022/11/03 12:58:39;;;;;;;14.43;6.00;;;;;;;9.73;91.68;99964.06;6240762;23;20042;-73
2022/11/03 13:01:43;;;;;;;17.95;5.50;;;;;;;9.76;92.87;99953.44;6240873;23;20031;-74
2022/11/03 13:04:48;;;;;;;15.38;5.70;;;;;;;9.76;92.42;99953.44;6240872;23;20029;-73
2022/11/03 13:07:51;;;;;;;15.23;4.65;;;;;;;9.83;92.02;99954.78;6239392;23;20085;-73
2022/11/03 13:10:55;;;;;;;16.23;5.60;;;;;;;9.88;91.66;99957.94;6237804;23;20034;-73
2022/11/03 13:13:59;;;;;;;17.27;7.53;;;;;;;9.86;91.91;99943.28;6237588;23;20043;-74
2022/11/03 13:17:03;;;;;;;29.20;14.43;;;;;;;9.84;91.45;99925.13;6238060;23;20229;-73
2022/11/03 13:20:08;;;;;;;19.95;12.00;;;;;;;9.92;92.94;99906.38;6239261;23;20100;-73
2022/11/03 13:23:12;;;;;;;19.10;7.90;;;;;;;9.98;91.92;99892.94;6239525;23;20350;-73
2022/11/03 13:26:17;;;;;;;12.65;5.97;;;;;;;9.94;93.19;99884.47;6239364;23;20031;-73
2022/11/03 13:29:21;;;;;;;14.15;5.88;;;;;;;10.00;92.64;99878.88;6239032;23;20030;-73
2022/11/03 13:32:24;;;;;;;12.90;5.43;;;;;;;10.02;92.42;99860.53;6239386;23;20023;-74
2022/11/03 13:35:28;;;;;;;11.80;5.47;;;;;;;9.96;93.24;99860.88;6238989;23;20054;-73
2022/11/03 13:38:32;;;;;;;13.52;6.03;;;;;;;9.96;92.77;99853.88;6238530;23;20027;-73
2022/11/03 13:41:36;;;;;;;13.48;6.05;;;;;;;9.86;93.45;99844.06;6240407;23;20058;-73
2022/11/03 13:44:43;;;;;;;14.60;6.00;;;;;;;9.87;93.72;99836.16;6240526;23;20309;-74
2022/11/03 13:47:49;;;;;;;18.05;6.72;;;;;;;9.93;92.81;99835.78;6240494;23;20095;-73
2022/11/03 13:50:52;;;;;;;13.77;6.50;;;;;;;10.00;93.61;99821.41;6238600;23;20062;-73
2022/11/03 13:53:56;;;;;;;17.52;6.57;;;;;;;9.96;92.37;99819.09;6239606;23;20534;-73
2022/11/03 13:57:01;;;;;;;19.33;6.30;;;;;;;9.94;93.38;99800.91;6239407;23;20027;-73
2022/11/03 14:00:05;;;;;;;16.33;7.07;;;;;;;9.85;94.09;99791.00;6220623;23;20081;-73
2022/11/03 14:03:16;;;;;;;13.23;4.85;;;;;;;9.91;95.20;99792.41;6239690;23;20114;-74
2022/11/03 14:06:20;;;;;;;11.48;4.60;;;;;;;9.94;94.35;99787.00;6238673;23;20026;-73
2022/11/03 14:09:24;;;;;;;10.68;4.57;;;;;;;9.91;94.31;99769.75;6240045;23;20074;-74
2022/11/03 14:12:30;;;;;;;11.43;4.57;;;;;;;9.90;95.38;99783.75;6240489;23;20027;-73
2022/11/03 14:15:34;;;;;;;12.65;5.30;;;;;;;9.86;94.48;99779.66;6241222;23;20023;-73
2022/11/03 14:18:39;;;;;;;25.63;10.45;;;;;;;9.91;94.60;99764.53;6239979;23;20162;-73
2022/11/03 14:21:43;;;;;;;19.50;11.65;;;;;;;10.02;94.22;99764.72;6237704;23;20058;-73
2022/11/03 14:24:47;;;;;;;25.38;10.93;;;;;;;10.10;93.84;99743.34;6239990;23;20030;-72
2022/11/03 14:27:51;;;;;;;17.15;7.85;;;;;;;10.06;94.26;99726.19;6238059;23;20066;-73
2022/11/03 14:30:58;;;;;;;15.18;6.85;;;;;;;10.04;94.48;99724.59;6239683;23;20035;-74
2022/11/03 14:34:03;;;;;;;18.40;6.65;;;;;;;9.96;94.08;99728.53;6238880;23;20364;-73
2022/11/03 14:37:07;;;;;;;12.80;6.65;;;;;;;9.94;95.73;99733.00;6220930;23;20074;-73
2022/11/03 14:42:02;;;;;;;25.38;13.70;;;;;;;9.84;96.68;99755.41;6238870;23;20051;-74
2022/11/03 14:43:41;;;;;;;27.92;17.70;;;;;;;9.91;95.89;99753.25;6238599;23;20027;-73
2022/11/03 14:46:45;;;;;;;30.13;19.50;;;;;;;10.01;95.59;99742.13;6238895;23;20082;-73
2022/11/03 14:49:49;;;;;;;32.80;19.55;;;;;;;10.12;95.86;99744.09;6238194;23;20023;-73
2022/11/03 14:52:52;;;;;;;29.05;18.35;;;;;;;10.18;94.28;99745.47;6239968;23;20039;-73
2022/11/03 14:55:55;;;;;;;29.55;18.83;;;;;;;10.11;94.83;99744.16;6237538;23;20027;-74
2022/11/03 14:58:59;;;;;;;25.60;14.15;;;;;;;10.07;95.25;99737.47;6238848;22;20074;-73
2022/11/03 15:02:04;;;;;;;24.38;12.25;;;;;;;9.95;96.39;99728.59;6238395;23;20055;-73
2022/11/03 15:05:42;;;;;;;30.20;14.68;;;;;;;9.99;95.67;99732.72;6238703;23;20279;-73
2022/11/03 15:08:33;;;;;;;21.02;11.82;;;;;;;10.05;95.51;99732.34;6220672;23;20178;-73
2022/11/03 15:11:36;;;;;;;21.45;10.50;;;;;;;10.10;95.48;99732.03;6238934;23;20031;-74